Time;durP1;ratioP1;P1;durP2;ratioP2;P2;SDS_P1;SDS_P2;PMS_P1;PMS_P2;Temp;Humidity;BMP_temperature;BMP_pressure;BME280_temperature;BME280_humidity;BME280_pressure;Samples;Min_cycle;Max_cycle;Signal;HPM_P1;HPM_P2
2021/06/14 00:02:35;;;;;;;5.68;3.75;;;;;;;15.89;100.00;100985.25;5095600;28;20088;-75
2021/06/14 00:05:28;;;;;;;4.10;3.65;;;;;;;16.10;100.00;100987.13;5095519;28;20039;-76
2021/06/14 00:08:20;;;;;;;8.10;3.63;;;;;;;16.08;100.00;100981.91;5094967;28;20035;-75
2021/06/14 00:11:07;;;;;;;5.38;3.33;;;;;;;16.27;100.00;100975.03;5095130;28;20032;-76
2021/06/14 00:13:53;;;;;;;5.18;3.50;;;;;;;16.42;100.00;100979.81;5094439;28;20088;-76
2021/06/14 00:16:40;;;;;;;4.13;3.42;;;;;;;16.24;100.00;100975.13;5094813;28;20119;-76
2021/06/14 00:19:25;;;;;;;4.07;3.20;;;;;;;16.33;100.00;100974.81;5094510;28;20032;-75
2021/06/14 00:22:12;;;;;;;6.57;3.60;;;;;;;15.95;100.00;100977.13;5094680;28;20028;-75
2021/06/14 00:24:58;;;;;;;5.53;3.63;;;;;;;15.78;100.00;100974.19;5095432;28;20032;-75
2021/06/14 00:27:44;;;;;;;9.50;3.60;;;;;;;15.41;100.00;100969.28;5095689;28;20471;-76
2021/06/14 00:30:39;;;;;;;5.50;3.65;;;;;;;15.75;100.00;100972.50;5093422;28;20024;-76
2021/06/14 00:33:26;;;;;;;7.47;3.40;;;;;;;15.44;100.00;100968.31;5094235;28;20028;-75
2021/06/14 00:36:11;;;;;;;7.07;3.38;;;;;;;15.54;100.00;100964.44;5093805;28;20020;-76
2021/06/14 00:38:57;;;;;;;7.15;3.75;;;;;;;15.26;100.00;100953.06;5094618;28;20081;-76
2021/06/14 00:41:43;;;;;;;5.00;3.17;;;;;;;15.43;100.00;100961.31;5093773;28;20043;-76
2021/06/14 00:44:29;;;;;;;6.38;3.95;;;;;;;15.65;100.00;100957.03;5094365;28;20034;-75
2021/06/14 00:47:14;;;;;;;5.65;3.28;;;;;;;15.47;100.00;100960.31;5094025;28;20383;-75
2021/06/14 00:50:00;;;;;;;5.78;3.00;;;;;;;15.24;100.00;100957.53;5094682;28;20060;-75
2021/06/14 00:52:46;;;;;;;4.32;3.38;;;;;;;15.66;100.00;100953.47;5093674;28;20107;-75
2021/06/14 00:55:33;;;;;;;5.50;3.72;;;;;;;15.60;100.00;100959.84;5093325;28;20091;-75
2021/06/14 00:58:19;;;;;;;6.50;3.40;;;;;;;15.81;100.00;100956.47;5093991;28;20093;-75
2021/06/14 01:01:07;;;;;;;4.28;3.38;;;;;;;15.88;100.00;100960.63;5093484;28;20093;-75
2021/06/14 01:03:52;;;;;;;7.85;3.65;;;;;;;16.01;100.00;100951.34;5093209;28;20508;-75
2021/06/14 01:06:38;;;;;;;3.85;3.08;;;;;;;16.01;100.00;100958.38;5093723;28;20136;-75
2021/06/14 01:09:24;;;;;;;8.13;3.90;;;;;;;16.03;100.00;100956.56;5093796;28;20181;-75
2021/06/14 01:12:12;;;;;;;9.85;3.92;;;;;;;15.86;100.00;100951.00;5093840;28;20353;-75
2021/06/14 01:15:04;;;;;;;7.47;3.58;;;;;;;16.12;100.00;100951.78;5094008;28;20043;-75
2021/06/14 01:17:57;;;;;;;6.95;3.70;;;;;;;16.25;100.00;100944.28;5093931;28;20096;-75
2021/06/14 01:21:06;;;;;;;5.55;3.60;;;;;;;16.19;100.00;100939.25;5093415;28;20118;-75
2021/06/14 01:24:08;;;;;;;6.20;3.58;;;;;;;15.98;100.00;100934.72;5094052;28;20020;-74
2021/06/14 01:26:53;;;;;;;6.47;3.22;;;;;;;16.02;100.00;100942.47;5093160;28;20054;-75
2021/06/14 01:29:41;;;;;;;6.88;3.75;;;;;;;16.34;100.00;100938.66;5093464;28;20537;-75
2021/06/14 01:32:27;;;;;;;5.63;3.47;;;;;;;16.17;100.00;100936.66;5093829;28;20120;-75
2021/06/14 01:35:16;;;;;;;6.22;4.07;;;;;;;16.37;100.00;100941.19;5093741;28;20039;-75
2021/06/14 01:38:04;;;;;;;7.00;4.32;;;;;;;16.31;100.00;100933.50;5094058;28;20031;-75
2021/06/14 01:40:55;;;;;;;7.82;4.30;;;;;;;16.11;100.00;100931.56;5093680;28;20028;-75
2021/06/14 01:43:41;;;;;;;7.55;3.97;;;;;;;16.03;100.00;100936.28;5093065;28;20120;-75
2021/06/14 01:46:31;;;;;;;7.93;4.10;;;;;;;16.07;100.00;100932.59;5093377;28;20032;-75
2021/06/14 01:49:20;;;;;;;7.78;4.22;;;;;;;15.79;100.00;100931.84;5093142;28;20103;-75
2021/06/14 01:52:06;;;;;;;4.57;3.75;;;;;;;15.23;100.00;100939.97;5093066;28;20020;-75
2021/06/14 01:54:53;;;;;;;10.05;3.70;;;;;;;15.40;100.00;100935.03;5093425;28;20020;-75
2021/06/14 01:57:40;;;;;;;5.93;4.22;;;;;;;15.22;100.00;100931.19;5093026;28;20119;-75
2021/06/14 02:00:26;;;;;;;5.20;4.50;;;;;;;15.11;100.00;100932.44;5092815;28;20048;-75
2021/06/14 02:03:15;;;;;;;6.53;4.55;;;;;;;15.00;100.00;100932.81;5092930;28;20365;-75
2021/06/14 02:06:02;;;;;;;7.55;4.70;;;;;;;15.25;100.00;100940.75;5093038;28;20035;-75
2021/06/14 02:08:48;;;;;;;6.18;4.50;;;;;;;14.82;100.00;100940.44;5092873;28;20035;-75
2021/06/14 02:11:35;;;;;;;8.75;4.60;;;;;;;14.64;100.00;100949.78;5094083;28;20028;-75
2021/06/14 02:14:25;;;;;;;6.78;4.38;;;;;;;15.03;100.00;100948.50;5093517;28;20098;-75
2021/06/14 02:17:18;;;;;;;12.05;4.82;;;;;;;14.55;100.00;100945.63;5094566;28;20024;-75
2021/06/14 02:20:10;;;;;;;8.50;4.53;;;;;;;14.59;100.00;100951.69;5096943;28;20364;-76
2021/06/14 02:22:55;;;;;;;10.38;4.55;;;;;;;14.57;100.00;100951.72;5096369;28;20043;-75
2021/06/14 02:25:41;;;;;;;6.95;4.30;;;;;;;14.60;100.00;100948.13;5096149;28;20042;-75
2021/06/14 02:28:27;;;;;;;7.55;4.32;;;;;;;15.10;100.00;100947.41;5097387;28;20032;-76
2021/06/14 02:31:13;;;;;;;6.30;4.32;;;;;;;14.88;100.00;100944.59;5096291;28;20035;-74
2021/06/14 02:34:00;;;;;;;8.52;3.97;;;;;;;14.74;100.00;100944.16;5096384;28;20028;-74
2021/06/14 02:36:47;;;;;;;8.38;3.92;;;;;;;15.27;100.00;100934.50;5096324;28;20024;-75
2021/06/14 02:39:34;;;;;;;7.80;3.65;;;;;;;15.09;100.00;100924.56;5096656;28;20023;-75
2021/06/14 02:42:20;;;;;;;5.25;3.40;;;;;;;15.20;100.00;100924.22;5096710;28;20031;-75
2021/06/14 02:45:08;;;;;;;5.80;3.75;;;;;;;15.61;100.00;100935.16;5096144;28;20028;-75
2021/06/14 02:47:55;;;;;;;4.35;3.60;;;;;;;15.76;100.00;100939.03;5096722;28;20082;-75
2021/06/14 02:50:43;;;;;;;7.55;3.47;;;;;;;15.57;100.00;100925.63;5096357;28;20066;-74
2021/06/14 02:53:31;;;;;;;8.27;3.75;;;;;;;15.47;100.00;100920.69;5096075;28;20089;-75
2021/06/14 02:56:18;;;;;;;6.10;3.70;;;;;;;15.54;100.00;100922.19;5095268;28;20113;-76
2021/06/14 02:59:08;;;;;;;5.40;3.33;;;;;;;15.66;100.00;100911.22;5096102;28;20407;-75
2021/06/14 03:01:54;;;;;;;5.18;3.63;;;;;;;15.75;100.00;100916.19;5095793;28;20532;-75
2021/06/14 03:04:41;;;;;;;5.93;3.30;;;;;;;15.53;100.00;100915.19;5096247;28;20032;-75
2021/06/14 03:07:28;;;;;;;7.63;3.30;;;;;;;15.66;100.00;100911.22;5095522;28;20048;-76
2021/06/14 03:10:13;;;;;;;7.38;3.75;;;;;;;15.48;100.00;100910.09;5095739;28;20028;-75
2021/06/14 03:13:04;;;;;;;10.98;3.40;;;;;;;14.94;100.00;100909.22;5095460;28;20088;-75
2021/06/14 03:15:50;;;;;;;5.93;3.10;;;;;;;15.43;100.00;100914.63;5094979;28;20151;-75
2021/06/14 03:18:37;;;;;;;5.57;3.35;;;;;;;15.35;100.00;100916.69;5095335;28;20052;-75
2021/06/14 03:21:27;;;;;;;5.55;3.63;;;;;;;15.70;100.00;100918.09;5095763;28;20030;-75
2021/06/14 03:24:15;;;;;;;9.15;3.53;;;;;;;15.58;100.00;100915.88;5096149;28;20024;-75
2021/06/14 03:27:02;;;;;;;7.88;3.53;;;;;;;15.65;100.00;100920.06;5095692;28;20070;-75
2021/06/14 03:29:52;;;;;;;6.22;3.10;;;;;;;15.62;100.00;100910.47;5095292;28;20032;-75
2021/06/14 03:32:40;;;;;;;5.78;3.38;;;;;;;15.65;100.00;100910.38;5095777;28;20063;-75
2021/06/14 03:35:26;;;;;;;4.30;3.30;;;;;;;15.95;100.00;100908.41;5095216;28;20463;-74
2021/06/14 03:38:12;;;;;;;6.28;3.50;;;;;;;15.64;100.00;100905.13;5096222;28;20031;-75
2021/06/14 03:40:58;;;;;;;4.50;3.30;;;;;;;15.69;100.00;100903.19;5095406;28;20444;-75
2021/06/14 03:43:44;;;;;;;4.93;3.58;;;;;;;15.83;100.00;100903.56;5095428;28;20102;-75
2021/06/14 03:46:30;;;;;;;8.10;4.05;;;;;;;15.90;100.00;100902.41;5095250;28;20050;-75
2021/06/14 03:49:16;;;;;;;7.50;4.20;;;;;;;15.69;100.00;100898.78;5094711;28;20020;-75
2021/06/14 03:52:02;;;;;;;7.55;4.18;;;;;;;15.76;100.00;100909.97;5093872;28;20094;-75
2021/06/14 03:54:48;;;;;;;7.50;3.88;;;;;;;15.89;100.00;100904.22;5094597;28;20146;-75
2021/06/14 03:57:33;;;;;;;6.68;4.57;;;;;;;15.62;100.00;100904.31;5095464;28;20043;-75
2021/06/14 04:00:20;;;;;;;8.07;4.80;;;;;;;16.02;100.00;100904.59;5094482;28;20093;-75
2021/06/14 04:03:06;;;;;;;8.25;4.40;;;;;;;15.50;100.00;100905.59;5094635;28;20028;-75
2021/06/14 04:05:51;;;;;;;11.20;4.35;;;;;;;15.52;100.00;100908.19;5094608;28;20475;-76
2021/06/14 04:08:37;;;;;;;9.70;4.80;;;;;;;15.61;100.00;100908.75;5094598;28;20032;-75
2021/06/14 04:11:24;;;;;;;10.57;4.65;;;;;;;15.05;100.00;100911.53;5094804;28;20403;-75
2021/06/14 04:14:10;;;;;;;10.20;4.85;;;;;;;15.63;100.00;100911.34;5095458;28;20020;-75
2021/06/14 04:16:56;;;;;;;7.45;4.40;;;;;;;15.77;100.00;100907.28;5095011;28;20027;-75
2021/06/14 04:19:42;;;;;;;9.57;4.57;;;;;;;15.47;100.00;100904.88;5093935;28;20116;-75
2021/06/14 04:22:28;;;;;;;9.30;4.38;;;;;;;15.78;100.00;100905.50;5094307;28;20346;-76
2021/06/14 04:25:14;;;;;;;11.02;4.90;;;;;;;15.65;100.00;100910.38;5094479;28;20031;-75
2021/06/14 04:28:02;;;;;;;9.98;4.75;;;;;;;15.67;100.00;100905.88;5093943;28;20028;-75
2021/06/14 04:30:47;;;;;;;7.88;4.25;;;;;;;15.50;100.00;100904.72;5093768;28;20100;-75
2021/06/14 04:33:33;;;;;;;9.88;4.93;;;;;;;15.59;100.00;100907.91;5093856;28;20027;-76
2021/06/14 04:36:19;;;;;;;7.97;4.95;;;;;;;15.43;100.00;100911.16;5093965;28;20046;-75
2021/06/14 04:39:06;;;;;;;9.10;4.90;;;;;;;15.82;100.00;100915.91;5094902;28;20425;-75
2021/06/14 04:41:51;;;;;;;9.95;4.82;;;;;;;15.83;100.00;100914.13;5094897;28;20028;-75
2021/06/14 04:44:37;;;;;;;11.38;4.97;;;;;;;15.87;100.00;100910.47;5095161;28;20020;-75
2021/06/14 04:47:23;;;;;;;6.97;4.57;;;;;;;16.40;100.00;100909.34;5095209;28;20024;-75
2021/06/14 04:50:09;;;;;;;5.72;4.25;;;;;;;16.63;100.00;100906.72;5095508;28;20424;-76
2021/06/14 04:52:56;;;;;;;10.73;4.22;;;;;;;16.66;100.00;100911.88;5096238;28;20032;-76
2021/06/14 04:55:42;;;;;;;6.70;3.83;;;;;;;16.78;100.00;100899.03;5095188;28;20048;-75
2021/06/14 04:58:28;;;;;;;8.30;4.13;;;;;;;16.98;100.00;100906.16;5095117;28;20059;-76
2021/06/14 05:01:14;;;;;;;7.63;4.60;;;;;;;16.69;100.00;100912.63;5096494;28;20380;-75
2021/06/14 05:04:00;;;;;;;7.63;4.07;;;;;;;16.99;100.00;100906.09;5095680;28;20364;-76
2021/06/14 05:06:46;;;;;;;6.80;4.35;;;;;;;17.06;100.00;100919.94;5096156;28;20104;-75
2021/06/14 05:09:31;;;;;;;7.65;4.05;;;;;;;16.61;100.00;100911.19;5095866;28;20024;-74
2021/06/14 05:12:17;;;;;;;5.85;4.00;;;;;;;17.07;100.00;100908.41;5095124;28;20031;-75
2021/06/14 05:15:04;;;;;;;5.68;4.40;;;;;;;16.80;100.00;100917.50;5094103;28;20027;-76
2021/06/14 05:17:50;;;;;;;5.22;4.15;;;;;;;17.04;100.00;100911.22;5094074;28;20106;-75
2021/06/14 05:20:36;;;;;;;7.25;4.40;;;;;;;17.12;100.00;100920.53;5093852;28;20024;-75
2021/06/14 05:23:22;;;;;;;7.60;4.20;;;;;;;17.63;100.00;100918.41;5093536;28;20020;-75
2021/06/14 05:26:08;;;;;;;8.10;4.30;;;;;;;17.35;100.00;100912.53;5093941;28;20016;-76
2021/06/14 05:28:54;;;;;;;6.82;4.80;;;;;;;17.53;100.00;100916.22;5094187;28;20080;-75
2021/06/14 05:31:39;;;;;;;10.90;4.85;;;;;;;17.51;100.00;100918.06;5093543;28;20051;-75
2021/06/14 05:34:25;;;;;;;7.68;4.60;;;;;;;17.50;100.00;100913.69;5093178;28;20027;-75
2021/06/14 05:37:11;;;;;;;8.93;4.88;;;;;;;18.11;100.00;100908.28;5092810;28;20028;-76
2021/06/14 05:39:57;;;;;;;10.80;4.65;;;;;;;18.39;100.00;100905.25;5093847;28;20039;-75
2021/06/14 05:42:43;;;;;;;9.43;4.70;;;;;;;18.14;100.00;100905.50;5093495;28;20024;-74
2021/06/14 05:45:29;;;;;;;8.30;4.90;;;;;;;18.10;100.00;100903.06;5094314;28;20032;-75
2021/06/14 05:48:15;;;;;;;7.40;5.00;;;;;;;18.20;100.00;100899.91;5092828;28;20357;-75
2021/06/14 05:51:00;;;;;;;8.23;5.30;;;;;;;17.99;100.00;100897.38;5094942;28;20039;-76
2021/06/14 05:53:48;;;;;;;9.45;5.10;;;;;;;17.96;100.00;100889.53;5096779;28;20053;-75
2021/06/14 05:56:34;;;;;;;8.95;5.05;;;;;;;17.89;100.00;100885.47;5097173;28;20060;-76
2021/06/14 05:59:20;;;;;;;8.50;5.15;;;;;;;17.72;100.00;100882.72;5098008;28;20043;-75
2021/06/14 06:02:07;;;;;;;8.27;5.15;;;;;;;17.96;100.00;100885.13;5097084;28;20035;-75
2021/06/14 06:04:52;;;;;;;8.32;5.18;;;;;;;17.99;100.00;100881.47;5097728;28;20028;-75
2021/06/14 06:07:38;;;;;;;6.72;5.15;;;;;;;18.13;100.00;100876.41;5097193;28;20012;-75
2021/06/14 06:10:24;;;;;;;10.23;5.68;;;;;;;18.17;100.00;100870.03;5096962;28;20076;-75
2021/06/14 06:13:10;;;;;;;8.75;5.20;;;;;;;18.19;100.00;100881.41;5096496;28;20032;-75
2021/06/14 06:15:56;;;;;;;7.20;5.10;;;;;;;18.22;100.00;100878.63;5097313;28;20020;-75
2021/06/14 06:18:42;;;;;;;8.35;4.95;;;;;;;18.63;100.00;100869.63;5096401;28;20032;-75
2021/06/14 06:21:28;;;;;;;11.00;5.15;;;;;;;18.59;100.00;100876.88;5096529;28;20102;-75
2021/06/14 06:24:14;;;;;;;9.38;4.82;;;;;;;18.55;100.00;100869.13;5096443;28;20447;-75
2021/06/14 06:27:00;;;;;;;10.23;5.18;;;;;;;17.73;100.00;100876.47;5096824;28;20111;-75
2021/06/14 06:29:46;;;;;;;7.68;4.50;;;;;;;18.03;100.00;100878.63;5096420;28;20085;-74
2021/06/14 06:32:32;;;;;;;7.60;4.60;;;;;;;18.20;100.00;100880.47;5095765;28;20031;-75
2021/06/14 06:35:18;;;;;;;7.80;4.70;;;;;;;18.65;100.00;100873.06;5096568;28;20031;-74
2021/06/14 06:38:05;;;;;;;9.00;4.80;;;;;;;18.86;100.00;100875.53;5096865;28;20027;-75
2021/06/14 06:40:50;;;;;;;7.40;4.13;;;;;;;19.01;100.00;100872.13;5096883;28;20356;-76
2021/06/14 06:43:36;;;;;;;8.63;4.00;;;;;;;19.16;100.00;100876.69;5095712;28;20028;-75
2021/06/14 06:46:22;;;;;;;6.45;4.20;;;;;;;19.16;100.00;100879.34;5096500;28;20028;-76
2021/06/14 06:49:08;;;;;;;9.98;4.22;;;;;;;19.18;100.00;100877.44;5095719;28;20059;-75
2021/06/14 06:51:53;;;;;;;7.25;4.18;;;;;;;18.94;100.00;100875.16;5096055;28;20108;-75
2021/06/14 06:54:39;;;;;;;10.55;4.50;;;;;;;19.27;100.00;100881.50;5095953;28;20068;-75
2021/06/14 06:57:26;;;;;;;6.22;4.20;;;;;;;19.53;100.00;100888.97;5096744;28;20062;-75
2021/06/14 07:00:18;;;;;;;10.60;4.78;;;;;;;19.13;100.00;100890.09;5096954;28;20042;-75
2021/06/14 07:03:04;;;;;;;8.57;4.47;;;;;;;19.27;100.00;100894.78;5095105;28;20035;-75
2021/06/14 07:05:50;;;;;;;6.40;4.05;;;;;;;18.93;100.00;100886.72;5095733;28;20034;-76
2021/06/14 07:08:35;;;;;;;5.57;4.10;;;;;;;19.43;100.00;100889.53;5096436;28;20333;-75
2021/06/14 07:11:21;;;;;;;10.82;4.22;;;;;;;19.52;100.00;100892.59;5095450;28;20024;-76
2021/06/14 07:14:07;;;;;;;10.00;4.95;;;;;;;19.79;100.00;100888.50;5096184;28;20106;-75
2021/06/14 07:16:53;;;;;;;9.73;4.10;;;;;;;19.51;100.00;100890.00;5095136;28;20397;-75
2021/06/14 07:19:39;;;;;;;9.07;4.72;;;;;;;19.45;100.00;100891.16;5096237;28;20028;-76
2021/06/14 07:22:24;;;;;;;10.77;4.38;;;;;;;20.01;100.00;100890.91;5095791;28;20035;-76
2021/06/14 07:25:11;;;;;;;6.38;4.10;;;;;;;20.04;100.00;100883.59;5095234;28;20110;-76
2021/06/14 07:27:57;;;;;;;7.13;4.40;;;;;;;20.48;100.00;100884.72;5095161;28;20031;-76
2021/06/14 07:30:43;;;;;;;10.80;4.47;;;;;;;20.58;100.00;100883.25;5095168;28;20017;-76
2021/06/14 07:33:29;;;;;;;9.52;4.70;;;;;;;21.23;100.00;100898.19;5095005;28;20367;-75
2021/06/14 07:36:15;;;;;;;6.97;3.92;;;;;;;21.41;100.00;100897.09;5095569;28;20120;-76
2021/06/14 07:39:10;;;;;;;9.50;4.40;;;;;;;21.31;100.00;100890.63;5081412;28;20123;-76
2021/06/14 07:41:59;;;;;;;8.85;4.20;;;;;;;21.45;100.00;100899.50;5095596;28;20395;-76
2021/06/14 07:44:45;;;;;;;10.23;4.30;;;;;;;20.63;100.00;100891.00;5095501;28;20103;-75
2021/06/14 07:47:31;;;;;;;9.20;4.20;;;;;;;21.40;100.00;100890.94;5094882;28;20012;-76
2021/06/14 07:50:17;;;;;;;9.65;4.32;;;;;;;21.26;100.00;100890.88;5095605;28;20425;-75
2021/06/14 07:53:03;;;;;;;7.45;4.13;;;;;;;21.50;100.00;100893.94;5094434;28;20024;-75
2021/06/14 07:55:52;;;;;;;6.00;3.45;;;;;;;21.57;100.00;100892.59;5094731;28;20366;-75
2021/06/14 07:58:37;;;;;;;9.57;4.10;;;;;;;22.18;100.00;100891.47;5094598;28;20449;-75
2021/06/14 08:01:23;;;;;;;7.75;3.30;;;;;;;22.43;100.00;100880.09;5093927;28;20024;-75
2021/06/14 08:04:09;;;;;;;7.38;3.63;;;;;;;21.97;100.00;100891.91;5094786;28;20027;-76
2021/06/14 08:06:55;;;;;;;7.60;4.10;;;;;;;22.16;100.00;100889.84;5095204;28;20028;-75
2021/06/14 08:09:41;;;;;;;10.35;3.88;;;;;;;22.81;100.00;100894.56;5094463;28;20401;-76
2021/06/14 08:12:26;;;;;;;6.60;4.50;;;;;;;23.17;100.00;100894.81;5094135;28;20028;-75
2021/06/14 08:15:17;;;;;;;9.13;3.30;;;;;;;23.32;100.00;100900.00;5093317;28;20368;-75
2021/06/14 08:27:08;;;;;;;6.18;3.40;;;;;;;22.82;98.78;100901.59;5078432;28;20035;-74
2021/06/14 08:29:54;;;;;;;16.65;4.15;;;;;;;23.73;100.00;100907.06;5093985;28;20525;-75
2021/06/14 08:32:40;;;;;;;9.15;3.65;;;;;;;23.71;93.71;100895.63;5093819;28;20043;-75
2021/06/14 08:35:28;;;;;;;10.57;3.70;;;;;;;24.43;91.69;100898.53;5097684;28;20020;-75
2021/06/14 08:38:13;;;;;;;5.28;3.33;;;;;;;24.69;91.05;100898.38;5094768;28;20477;-76
2021/06/14 08:40:59;;;;;;;6.45;3.30;;;;;;;25.29;84.58;100890.34;5094386;28;20028;-76
2021/06/14 08:43:51;;;;;;;7.00;3.72;;;;;;;25.49;78.99;100898.59;5094270;28;20517;-75
2021/06/14 08:46:37;;;;;;;8.85;3.50;;;;;;;25.36;82.59;100899.63;5093490;28;20031;-75
2021/06/14 08:49:24;;;;;;;7.28;3.45;;;;;;;25.18;80.69;100900.97;5093743;28;20035;-75
2021/06/14 08:52:11;;;;;;;9.48;3.42;;;;;;;25.09;82.30;100898.97;5093659;28;20100;-75
2021/06/14 08:54:57;;;;;;;8.15;3.38;;;;;;;25.37;82.72;100896.84;5093611;28;20360;-75
2021/06/14 08:57:43;;;;;;;8.13;3.42;;;;;;;24.98;87.49;100890.88;5095096;28;20055;-76
2021/06/14 09:00:31;;;;;;;5.40;3.13;;;;;;;24.08;87.61;100889.44;5094019;28;20028;-76
2021/06/14 09:03:18;;;;;;;7.72;3.30;;;;;;;24.38;89.62;100893.47;5093256;28;20437;-75
2021/06/14 09:06:04;;;;;;;5.10;3.50;;;;;;;24.97;87.07;100894.53;5094152;28;20054;-75
2021/06/14 09:08:57;;;;;;;7.43;3.53;;;;;;;24.74;86.90;100890.84;5093974;28;20409;-75
2021/06/14 09:11:54;;;;;;;4.95;3.10;;;;;;;25.03;86.63;100886.03;5094427;28;20390;-74
2021/06/14 09:15:19;;;;;;;4.63;3.25;;;;;;;24.99;80.73;100892.59;5095398;28;20088;-76
2021/06/14 09:18:34;;;;;;;7.05;3.75;;;;;;;25.00;84.42;100894.31;5033867;28;20037;-75
2021/06/14 09:21:20;;;;;;;8.23;3.30;;;;;;;24.91;90.55;100889.63;5091260;28;20062;-75
2021/06/14 09:24:13;;;;;;;5.80;3.10;;;;;;;24.35;89.57;100890.19;5094059;28;20444;-76
2021/06/14 09:26:59;;;;;;;4.97;3.28;;;;;;;24.68;87.13;100879.72;5099826;28;20432;-76
2021/06/14 09:29:45;;;;;;;11.43;3.70;;;;;;;24.71;94.45;100880.34;5098759;28;20103;-75
2021/06/14 09:32:30;;;;;;;9.63;3.30;;;;;;;24.67;91.09;100873.50;5119049;28;20169;-75
2021/06/14 09:35:17;;;;;;;6.97;3.03;;;;;;;25.13;83.67;100884.38;5104538;28;20030;-76
2021/06/14 09:38:15;;;;;;;7.13;3.30;;;;;;;25.28;82.01;100876.06;5118325;28;20020;-74
2021/06/14 09:41:10;;;;;;;5.13;3.05;;;;;;;24.62;78.19;100881.03;5118248;28;20024;-74
2021/06/14 09:43:56;;;;;;;4.68;2.83;;;;;;;24.55;76.43;100873.53;5104221;28;20325;-75
2021/06/14 09:46:41;;;;;;;4.32;2.67;;;;;;;25.19;72.32;100881.25;5103828;28;20080;-75
2021/06/14 09:49:27;;;;;;;4.43;2.33;;;;;;;24.91;66.19;100881.59;5118904;28;20026;-75
2021/06/14 09:52:20;;;;;;;5.43;2.90;;;;;;;24.74;72.29;100881.94;5104641;28;20211;-75
2021/06/14 09:55:15;;;;;;;6.07;2.90;;;;;;;25.10;75.87;100877.41;5118502;28;20027;-75
2021/06/14 09:58:24;;;;;;;4.47;2.50;;;;;;;25.29;74.56;100879.59;5118676;28;20027;-76
2021/06/14 10:01:10;;;;;;;4.75;2.72;;;;;;;25.35;72.57;100873.78;5118883;28;20027;-75
2021/06/14 10:04:04;;;;;;;7.28;3.08;;;;;;;25.22;75.26;100876.50;5104477;28;20098;-79
2021/06/14 10:06:54;;;;;;;5.15;3.17;;;;;;;24.61;76.27;100873.97;5106172;27;20115;-77
2021/06/14 10:09:46;;;;;;;4.07;2.63;;;;;;;24.99;70.67;100868.47;5119162;28;20040;-75
2021/06/14 10:12:32;;;;;;;6.68;3.05;;;;;;;24.26;75.55;100886.31;5118766;28;20440;-74
2021/06/14 10:15:28;;;;;;;4.47;2.67;;;;;;;24.04;77.35;100887.94;5119652;28;20119;-76
2021/06/14 10:18:29;;;;;;;5.00;2.60;;;;;;;24.23;74.01;100885.69;5117838;28;20039;-75
2021/06/14 10:21:32;;;;;;;6.20;3.13;;;;;;;23.53;73.91;100895.03;5102516;28;20020;-75
2021/06/14 10:24:20;;;;;;;4.55;2.90;;;;;;;23.08;80.87;100896.25;5102799;28;20110;-76
2021/06/14 10:27:06;;;;;;;5.63;2.90;;;;;;;22.55;95.57;100901.56;5103694;28;20360;-75
2021/06/14 10:29:52;;;;;;;8.02;2.42;;;;;;;22.16;100.00;100900.50;5103171;28;20031;-75
2021/06/14 10:32:40;;;;;;;5.97;2.83;;;;;;;22.49;100.00;100906.44;5117283;28;20019;-75
2021/06/14 10:35:28;;;;;;;5.22;2.85;;;;;;;21.68;100.00;100907.00;5104651;27;20037;-75
2021/06/14 10:38:14;;;;;;;9.85;3.10;;;;;;;21.17;100.00;100909.19;5117188;28;20540;-75
2021/06/14 10:41:00;;;;;;;5.60;2.95;;;;;;;21.50;100.00;100905.44;5117507;28;20031;-76
2021/06/14 10:43:47;;;;;;;6.30;2.63;;;;;;;21.93;100.00;100906.41;5117352;28;20024;-75
2021/06/14 10:46:36;;;;;;;3.63;2.67;;;;;;;21.55;100.00;100898.03;5103306;28;20173;-75
2021/06/14 10:49:23;;;;;;;10.05;2.78;;;;;;;21.83;100.00;100897.25;5117766;28;20023;-75
2021/06/14 10:52:09;;;;;;;4.90;2.83;;;;;;;21.49;100.00;100897.50;5117896;28;20028;-75
2021/06/14 10:55:07;;;;;;;4.70;2.78;;;;;;;21.70;99.79;100898.91;5118512;28;20431;-75
2021/06/14 10:57:53;;;;;;;3.03;2.60;;;;;;;21.86;95.28;100902.41;5082303;28;20073;-76
2021/06/14 11:00:39;;;;;;;5.43;2.97;;;;;;;21.82;93.20;100904.38;5097360;28;20035;-75
2021/06/14 11:03:38;;;;;;;6.40;2.63;;;;;;;21.96;93.68;100912.44;5097659;28;20019;-76
2021/06/14 11:06:29;;;;;;;4.15;2.60;;;;;;;22.21;93.71;100906.41;5096665;28;20031;-74
2021/06/14 11:09:21;;;;;;;7.38;3.15;;;;;;;22.89;90.03;100903.78;5081980;28;20032;-76
2021/06/14 11:12:12;;;;;;;5.13;2.67;;;;;;;22.34;89.12;100918.06;5082990;28;20027;-77
2021/06/14 11:15:08;;;;;;;6.90;2.83;;;;;;;22.45;92.94;100919.09;5097322;28;20082;-75
2021/06/14 11:17:53;;;;;;;6.50;2.38;;;;;;;22.01;96.88;100918.34;5095615;28;20039;-77
2021/06/14 11:20:39;;;;;;;4.20;2.25;;;;;;;22.16;96.84;100921.88;5096759;28;20020;-76
2021/06/14 11:23:29;;;;;;;3.35;2.42;;;;;;;22.06;97.73;100923.41;5096960;28;20448;-75
2021/06/14 11:26:30;;;;;;;3.30;2.15;;;;;;;21.73;96.28;100917.41;5096164;28;20106;-75
2021/06/14 11:29:18;;;;;;;2.53;1.98;;;;;;;22.02;93.55;100921.88;5082690;28;20015;-76
2021/06/14 11:32:04;;;;;;;4.90;2.25;;;;;;;21.74;98.21;100916.50;5096146;28;20088;-74
2021/06/14 11:34:57;;;;;;;4.93;2.28;;;;;;;21.69;99.83;100914.06;5096355;28;20041;-76
2021/06/14 11:37:47;;;;;;;4.70;2.30;;;;;;;20.56;100.00;100903.81;5082760;28;20024;-75
2021/06/14 11:40:35;;;;;;;3.30;2.38;;;;;;;20.52;100.00;100904.91;5096037;28;20023;-75
2021/06/14 11:43:21;;;;;;;4.05;2.30;;;;;;;20.40;100.00;100905.59;5081797;28;20032;-75
2021/06/14 11:46:24;;;;;;;3.30;2.60;;;;;;;20.66;100.00;100899.66;5095211;28;20364;-75
2021/06/14 11:49:11;;;;;;;6.50;2.65;;;;;;;21.03;100.00;100896.69;5095029;28;20112;-75
2021/06/14 11:51:56;;;;;;;5.43;2.70;;;;;;;21.55;100.00;100902.50;5080382;28;20137;-74
2021/06/14 11:54:43;;;;;;;4.18;2.42;;;;;;;21.45;100.00;100888.84;5081564;28;20020;-75
2021/06/14 11:57:32;;;;;;;4.22;2.40;;;;;;;22.29;98.31;100891.66;5080124;28;20044;-74
2021/06/14 12:00:31;;;;;;;4.18;2.40;;;;;;;23.19;91.84;100883.03;5080397;28;20032;-75
2021/06/14 12:03:22;;;;;;;7.47;1.85;;;;;;;23.34;84.96;100875.84;5079903;28;20028;-76
2021/06/14 12:06:08;;;;;;;2.05;1.50;;;;;;;23.43;72.97;100877.91;5094176;28;20032;-75
2021/06/14 12:09:12;;;;;;;1.90;1.40;;;;;;;23.90;70.07;100882.69;5096078;28;20028;-76
2021/06/14 12:12:01;;;;;;;1.90;1.70;;;;;;;23.56;69.94;100868.09;5080016;28;20024;-76
2021/06/14 12:14:56;;;;;;;2.22;1.58;;;;;;;23.05;74.85;100869.75;5081706;28;20368;-75
2021/06/14 12:17:44;;;;;;;4.00;2.30;;;;;;;23.58;81.51;100868.00;5096429;28;20024;-76
2021/06/14 12:20:32;;;;;;;3.17;2.42;;;;;;;23.61;83.13;100860.59;5094720;28;20043;-76
2021/06/14 12:23:18;;;;;;;8.18;2.97;;;;;;;23.57;87.00;100856.44;5095348;28;20024;-77
2021/06/14 12:26:09;;;;;;;6.10;2.70;;;;;;;22.63;89.66;100856.53;5094937;28;20056;-77
2021/06/14 12:28:54;;;;;;;5.45;2.80;;;;;;;23.46;91.83;100852.78;5094145;28;20016;-76
2021/06/14 12:31:40;;;;;;;5.28;2.80;;;;;;;23.51;89.01;100861.34;5093972;28;20044;-76
2021/06/14 12:34:27;;;;;;;6.93;2.95;;;;;;;22.95;93.44;100855.28;5093836;28;20107;-76
2021/06/14 12:37:21;;;;;;;5.63;2.60;;;;;;;23.12;92.65;100846.97;5080896;28;20036;-75
2021/06/14 12:40:10;;;;;;;4.60;2.47;;;;;;;22.72;88.37;100850.59;5094057;28;20040;-76
2021/06/14 12:42:55;;;;;;;2.08;1.70;;;;;;;23.62;74.53;100848.94;5094124;28;20064;-76
2021/06/14 12:45:43;;;;;;;4.68;1.80;;;;;;;23.98;72.79;100850.91;5094361;28;20470;-76
2021/06/14 12:48:29;;;;;;;5.18;2.00;;;;;;;24.04;68.20;100848.66;5094110;28;20115;-76
2021/06/14 12:51:16;;;;;;;7.60;2.70;;;;;;;23.71;82.97;100847.44;5079501;28;20023;-76
2021/06/14 12:54:02;;;;;;;4.90;2.03;;;;;;;23.03;84.96;100839.59;5078963;28;20097;-76
2021/06/14 12:56:57;;;;;;;7.20;2.25;;;;;;;23.70;76.34;100851.09;5087697;28;20048;-75
2021/06/14 12:59:45;;;;;;;5.07;2.50;;;;;;;23.34;79.09;100838.41;5093671;28;20136;-75
2021/06/14 13:02:31;;;;;;;5.10;2.30;;;;;;;23.83;76.59;100834.06;5094319;28;20020;-76
2021/06/14 13:05:17;;;;;;;13.55;3.20;;;;;;;24.14;83.73;100832.81;5096916;28;20441;-76